Time;durP1;ratioP1;P1;durP2;ratioP2;P2;SDS_P1;SDS_P2;PMS_P1;PMS_P2;Temp;Humidity;BMP_temperature;BMP_pressure;BME280_temperature;BME280_humidity;BME280_pressure;Samples;Min_cycle;Max_cycle;Signal;HPM_P1;HPM_P2
2022/07/11 00:02:07;;;;;;;3.35;2.42;;;;;;;17.08;79.35;98312.47;5010529;28;20014;-75
2022/07/11 00:04:35;;;;;;;3.42;2.95;;;;;;;17.10;80.38;98310.19;4993018;28;20030;-76
2022/07/11 00:07:01;;;;;;;3.33;2.38;;;;;;;17.06;80.50;98317.53;5012795;28;20034;-77
2022/07/11 00:09:26;;;;;;;5.20;2.40;;;;;;;17.09;78.56;98324.34;5018605;28;20025;-75
2022/07/11 00:11:52;;;;;;;3.80;2.45;;;;;;;17.10;78.62;98323.22;5018876;28;20061;-74
2022/07/11 00:14:18;;;;;;;4.20;2.60;;;;;;;17.08;77.38;98309.72;5014719;28;20439;-75
2022/07/11 00:16:44;;;;;;;4.82;2.30;;;;;;;17.13;75.69;98314.25;5013659;28;20029;-76
2022/07/11 00:19:09;;;;;;;6.53;2.80;;;;;;;17.18;74.25;98313.25;5013784;28;20032;-75
2022/07/11 00:21:36;;;;;;;5.78;2.30;;;;;;;17.13;73.58;98311.50;5013762;28;20471;-75
2022/07/11 00:24:07;;;;;;;3.20;2.25;;;;;;;17.11;72.97;98331.16;5014052;28;20034;-74
2022/07/11 00:26:33;;;;;;;5.18;2.50;;;;;;;17.17;72.89;98317.16;5014043;28;20113;-74
2022/07/11 00:28:58;;;;;;;5.05;2.58;;;;;;;17.12;73.80;98316.22;5013728;28;20108;-75
2022/07/11 00:31:23;;;;;;;5.53;2.50;;;;;;;17.13;73.23;98317.81;5013685;28;20033;-74
2022/07/11 00:33:49;;;;;;;4.53;2.20;;;;;;;17.14;73.20;98313.09;5013417;28;20492;-76
2022/07/11 00:36:14;;;;;;;2.55;2.10;;;;;;;17.17;72.65;98319.91;5013228;28;20030;-75
2022/07/11 00:38:40;;;;;;;5.22;2.28;;;;;;;17.20;72.96;98317.31;5013549;28;20044;-75
2022/07/11 00:41:05;;;;;;;2.80;2.50;;;;;;;17.16;72.89;98318.31;5013509;28;20756;-76
2022/07/11 00:43:33;;;;;;;4.03;2.30;;;;;;;17.12;73.16;98320.94;5013371;28;20022;-76
2022/07/11 00:45:59;;;;;;;4.15;2.38;;;;;;;17.13;73.86;98320.59;5013162;28;20364;-76
2022/07/11 00:48:24;;;;;;;4.68;2.25;;;;;;;17.13;74.16;98317.81;5015354;28;20068;-77
2022/07/11 00:50:50;;;;;;;3.90;2.92;;;;;;;17.11;74.31;98317.34;5020020;28;20030;-76
2022/07/11 00:53:17;;;;;;;3.70;2.63;;;;;;;17.04;73.70;98319.00;5019504;28;20033;-77
2022/07/11 00:55:42;;;;;;;4.45;2.63;;;;;;;17.09;74.06;98327.13;5015921;28;20030;-76
2022/07/11 00:58:08;;;;;;;3.13;2.25;;;;;;;17.05;74.62;98328.91;5013250;28;20037;-77
2022/07/11 01:00:33;;;;;;;2.67;2.08;;;;;;;17.06;74.67;98328.59;5013211;28;20037;-76
2022/07/11 01:02:59;;;;;;;3.28;2.28;;;;;;;17.11;75.80;98330.34;4995468;28;20026;-77
2022/07/11 01:05:24;;;;;;;4.80;2.40;;;;;;;17.17;75.14;98323.50;5012749;28;20030;-76
2022/07/11 01:07:49;;;;;;;5.43;2.50;;;;;;;17.12;74.82;98318.16;5012785;28;20109;-76
2022/07/11 01:10:15;;;;;;;4.75;2.40;;;;;;;17.09;74.64;98329.88;5012838;28;20071;-77
2022/07/11 01:12:40;;;;;;;7.30;2.50;;;;;;;17.07;75.04;98321.91;5012791;28;20044;-77
2022/07/11 01:15:07;;;;;;;2.95;2.40;;;;;;;17.00;74.75;98316.09;5012665;28;20479;-77
2022/07/11 01:17:33;;;;;;;5.65;2.30;;;;;;;17.00;74.41;98320.78;5011948;28;20076;-76
2022/07/11 01:19:58;;;;;;;6.25;2.50;;;;;;;16.94;73.71;98320.16;5012951;28;20422;-76
2022/07/11 01:22:26;;;;;;;4.38;2.50;;;;;;;16.91;74.00;98318.06;5012486;28;20049;-75
2022/07/11 01:24:51;;;;;;;4.15;2.28;;;;;;;16.90;74.68;98321.94;5013065;28;20026;-76
2022/07/11 01:27:16;;;;;;;2.88;2.20;;;;;;;16.92;74.21;98327.94;5012365;28;20387;-76
2022/07/11 01:29:42;;;;;;;3.13;2.30;;;;;;;16.86;74.19;98320.97;5012440;28;20125;-76
2022/07/11 01:32:07;;;;;;;3.47;2.45;;;;;;;16.89;72.69;98334.13;5011949;28;20025;-76
2022/07/11 01:34:34;;;;;;;3.60;2.20;;;;;;;16.81;72.89;98329.44;5012228;28;20069;-77
2022/07/11 01:36:59;;;;;;;4.68;2.33;;;;;;;16.78;72.82;98327.31;5012278;28;20037;-76
2022/07/11 01:39:24;;;;;;;3.72;2.20;;;;;;;16.77;72.88;98324.88;5012322;28;20030;-76
2022/07/11 01:41:50;;;;;;;7.80;2.53;;;;;;;16.75;73.04;98333.50;5012317;28;20037;-75
2022/07/11 01:44:15;;;;;;;3.80;2.30;;;;;;;16.75;72.77;98327.16;5012071;28;20398;-75
2022/07/11 01:46:41;;;;;;;2.88;2.17;;;;;;;16.63;73.33;98327.81;5012137;28;20402;-76
2022/07/11 01:49:06;;;;;;;3.90;2.03;;;;;;;16.65;72.32;98324.72;5011988;28;20038;-75
2022/07/11 01:51:31;;;;;;;5.28;2.45;;;;;;;16.64;72.08;98331.38;5011826;28;20033;-76
2022/07/11 01:53:57;;;;;;;5.18;2.50;;;;;;;16.59;72.66;98322.13;5012033;28;20065;-75
2022/07/11 01:56:22;;;;;;;4.32;2.55;;;;;;;16.66;72.34;98337.41;5012284;28;20211;-76
2022/07/11 01:58:48;;;;;;;5.22;2.35;;;;;;;16.60;72.85;98325.72;5011883;28;20036;-75
2022/07/11 02:01:14;;;;;;;3.50;2.25;;;;;;;16.60;73.12;98325.72;5012020;28;20038;-75
2022/07/11 02:03:39;;;;;;;4.13;2.30;;;;;;;16.66;73.60;98334.66;5011812;28;20033;-75
2022/07/11 02:06:05;;;;;;;3.65;2.20;;;;;;;16.60;73.96;98336.75;5011736;28;20017;-75
2022/07/11 02:08:30;;;;;;;2.80;2.25;;;;;;;16.54;73.77;98333.34;5012031;28;20022;-75
2022/07/11 02:10:56;;;;;;;3.67;2.05;;;;;;;16.51;73.64;98338.66;5011712;28;20036;-76
2022/07/11 02:13:23;;;;;;;3.33;2.20;;;;;;;16.45;74.01;98340.78;5011902;28;20045;-76
2022/07/11 02:15:50;;;;;;;9.32;2.28;;;;;;;16.45;74.63;98339.97;5012527;28;20097;-76
2022/07/11 02:18:17;;;;;;;4.55;2.15;;;;;;;16.36;74.83;98339.97;5015373;28;20047;-76
2022/07/11 02:20:45;;;;;;;5.40;2.42;;;;;;;16.32;74.80;98336.22;5015164;28;20026;-76
2022/07/11 02:23:12;;;;;;;3.88;2.30;;;;;;;16.26;75.20;98331.97;5012797;28;20033;-77
2022/07/11 02:25:40;;;;;;;4.90;2.35;;;;;;;16.20;74.68;98327.75;5012136;28;20048;-76
2022/07/11 02:28:10;;;;;;;3.25;2.22;;;;;;;16.23;74.55;98342.84;5011277;28;20030;-76
2022/07/11 02:30:36;;;;;;;2.70;2.30;;;;;;;16.18;74.99;98327.28;4992702;28;20454;-75
2022/07/11 02:33:01;;;;;;;4.40;2.65;;;;;;;16.11;75.42;98334.41;4993412;28;20132;-76
2022/07/11 02:35:27;;;;;;;3.65;2.38;;;;;;;16.11;75.83;98337.97;5011138;28;20042;-77
2022/07/11 02:37:53;;;;;;;3.00;2.15;;;;;;;16.11;76.19;98343.50;5011025;28;20565;-77
2022/07/11 02:40:18;;;;;;;5.05;2.63;;;;;;;16.11;75.64;98349.00;5011423;28;20108;-75
2022/07/11 02:42:44;;;;;;;4.47;2.20;;;;;;;16.04;76.69;98346.72;5011099;28;20473;-76
2022/07/11 02:45:10;;;;;;;3.30;2.28;;;;;;;16.00;76.42;98336.66;5011171;28;20437;-76
2022/07/11 02:47:39;;;;;;;6.70;2.53;;;;;;;16.04;77.20;98345.91;5011279;28;20033;-76
2022/07/11 02:50:12;;;;;;;3.42;2.50;;;;;;;16.01;77.76;98347.38;5009084;28;20441;-75
2022/07/11 02:52:38;;;;;;;4.47;2.60;;;;;;;15.91;77.29;98338.59;5011250;28;20041;-77
2022/07/11 02:55:04;;;;;;;3.65;2.15;;;;;;;16.00;76.96;98355.97;5011697;28;20022;-74
2022/07/11 02:57:30;;;;;;;8.00;2.60;;;;;;;16.00;77.90;98347.69;5010810;28;20569;-77
2022/07/11 02:59:55;;;;;;;3.50;2.50;;;;;;;15.91;77.08;98353.16;5011232;28;20117;-76
2022/07/11 03:02:21;;;;;;;3.92;2.28;;;;;;;15.91;77.56;98355.94;5010859;28;20021;-76
2022/07/11 03:04:46;;;;;;;3.67;2.30;;;;;;;15.86;78.05;98350.56;5011583;28;20041;-75
2022/07/11 03:07:13;;;;;;;4.35;2.45;;;;;;;15.80;77.26;98351.84;5011385;28;20033;-76
2022/07/11 03:09:38;;;;;;;4.45;2.30;;;;;;;15.74;77.57;98349.56;4993541;28;20071;-76
2022/07/11 03:12:04;;;;;;;3.45;2.40;;;;;;;15.79;77.34;98363.19;5010915;28;20034;-76
2022/07/11 03:14:29;;;;;;;5.53;2.25;;;;;;;15.77;76.91;98358.00;5010259;28;20037;-77
2022/07/11 03:16:56;;;;;;;5.22;3.03;;;;;;;15.75;76.83;98356.72;5010629;28;20030;-75
2022/07/11 03:19:21;;;;;;;6.35;2.90;;;;;;;15.77;77.12;98363.53;5010885;28;20034;-76
2022/07/11 03:21:47;;;;;;;6.15;3.08;;;;;;;15.85;77.42;98359.97;5010825;28;20037;-75
2022/07/11 03:24:12;;;;;;;5.68;2.53;;;;;;;15.75;77.52;98364.97;5010952;28;20034;-75
2022/07/11 03:26:38;;;;;;;3.90;2.30;;;;;;;15.68;77.50;98359.94;5011070;28;20112;-75
2022/07/11 03:29:04;;;;;;;3.28;2.30;;;;;;;15.63;77.64;98356.50;5010796;28;20084;-75
2022/07/11 03:31:30;;;;;;;3.47;2.38;;;;;;;15.64;77.50;98367.19;4993090;28;20157;-76
2022/07/11 03:33:55;;;;;;;2.92;2.15;;;;;;;15.68;75.89;98359.09;5010607;28;20133;-76
2022/07/11 03:36:20;;;;;;;4.40;2.58;;;;;;;15.66;75.77;98364.97;5010461;28;20108;-77
2022/07/11 03:38:46;;;;;;;3.67;2.20;;;;;;;15.64;76.05;98355.34;5010558;28;20080;-75
2022/07/11 03:41:12;;;;;;;3.78;2.53;;;;;;;15.65;75.99;98371.59;5011779;28;20030;-77
2022/07/11 03:43:40;;;;;;;3.30;2.05;;;;;;;15.64;75.37;98369.97;5014465;28;20033;-76
2022/07/11 03:46:06;;;;;;;8.60;2.33;;;;;;;15.61;75.63;98367.00;5014472;28;20045;-75
2022/07/11 03:48:32;;;;;;;4.65;2.50;;;;;;;15.66;75.74;98375.16;5014585;28;20631;-80
2022/07/11 03:50:58;;;;;;;2.60;1.90;;;;;;;15.65;75.63;98376.28;5004910;28;20080;-76
2022/07/11 03:53:24;;;;;;;2.63;2.10;;;;;;;15.60;74.78;98374.47;5004103;28;20076;-82
2022/07/11 03:55:49;;;;;;;2.72;2.25;;;;;;;15.61;75.20;98376.09;5001558;28;20041;-83
2022/07/11 03:58:15;;;;;;;2.90;2.40;;;;;;;15.62;74.82;98371.41;5001075;28;20090;-84
2022/07/11 04:00:40;;;;;;;3.13;2.40;;;;;;;15.81;74.20;98372.78;5002053;28;20090;-81
2022/07/11 04:03:06;;;;;;;3.33;2.28;;;;;;;15.83;73.75;98366.94;5003792;28;20038;-83
2022/07/11 04:05:31;;;;;;;6.10;2.50;;;;;;;15.81;73.02;98369.22;5000461;28;20019;-84
2022/07/11 04:07:57;;;;;;;3.78;2.28;;;;;;;15.81;73.52;98383.84;5002055;28;20471;-83
2022/07/11 04:10:23;;;;;;;3.78;2.30;;;;;;;15.78;72.80;98370.69;4999125;28;20032;-82
2022/07/11 04:12:48;;;;;;;4.40;2.28;;;;;;;15.81;72.85;98386.59;5017978;28;20105;-82
2022/07/11 04:15:13;;;;;;;3.63;2.30;;;;;;;16.07;72.42;98372.84;5018720;28;20449;-83
2022/07/11 04:17:39;;;;;;;3.58;2.40;;;;;;;16.59;69.40;98379.31;5018345;28;20119;-82
2022/07/11 04:20:05;;;;;;;4.40;2.20;;;;;;;16.40;70.14;98381.53;5000932;28;20029;-84
2022/07/11 04:22:30;;;;;;;5.20;2.33;;;;;;;16.35;70.92;98374.22;5018494;28;20093;-80
2022/07/11 04:24:55;;;;;;;3.20;2.10;;;;;;;16.55;69.67;98384.69;5021213;28;20058;-81
2022/07/11 04:27:21;;;;;;;4.93;2.50;;;;;;;16.62;69.75;98388.91;5026160;28;20025;-83
2022/07/11 04:29:46;;;;;;;3.00;2.10;;;;;;;16.26;70.17;98378.91;5038183;28;20097;-87
2022/07/11 04:32:12;;;;;;;3.72;2.40;;;;;;;16.20;71.54;98377.44;5020249;28;20010;-87
2022/07/11 04:34:37;;;;;;;3.85;2.10;;;;;;;15.94;71.93;98377.38;5036397;28;20057;-84
2022/07/11 04:37:04;;;;;;;6.63;2.40;;;;;;;16.42;70.42;98395.84;5017348;28;20030;-86
2022/07/11 04:39:32;;;;;;;4.90;2.40;;;;;;;16.62;69.63;98400.78;5019011;28;20398;-86
2022/07/11 04:41:59;;;;;;;2.85;2.17;;;;;;;16.46;70.27;98397.63;5010230;28;20026;-77
2022/07/11 04:44:25;;;;;;;3.70;2.50;;;;;;;16.53;70.82;98397.16;4992825;28;20113;-80
2022/07/11 04:46:50;;;;;;;5.50;2.63;;;;;;;16.54;71.31;98409.81;4994097;28;20029;-79
2022/07/11 04:49:15;;;;;;;3.67;2.70;;;;;;;16.50;70.76;98397.81;4993532;28;20026;-79
2022/07/11 04:51:41;;;;;;;5.00;2.30;;;;;;;16.72;70.74;98411.53;4976413;28;20117;-77
2022/07/11 04:54:07;;;;;;;3.53;2.70;;;;;;;16.77;69.94;98388.44;4974634;28;20391;-77
2022/07/11 04:56:32;;;;;;;4.78;2.45;;;;;;;17.05;69.80;98393.28;4992558;28;20407;-78
2022/07/11 04:58:57;;;;;;;6.30;2.70;;;;;;;17.48;68.03;98404.28;4993439;28;20027;-77
2022/07/11 05:01:23;;;;;;;3.38;2.30;;;;;;;17.94;65.74;98403.53;4993327;28;20472;-77
2022/07/11 05:03:48;;;;;;;4.80;2.22;;;;;;;17.89;65.77;98412.00;4993163;28;20391;-76
2022/07/11 05:06:14;;;;;;;5.45;2.63;;;;;;;17.74;66.24;98403.41;4993249;28;20394;-78
2022/07/11 05:08:39;;;;;;;2.97;2.20;;;;;;;17.75;65.91;98411.41;4999608;28;20034;-76
2022/07/11 05:11:05;;;;;;;3.30;2.30;;;;;;;17.75;66.19;98411.41;5015971;28;20025;-76
2022/07/11 05:13:31;;;;;;;3.30;2.35;;;;;;;17.73;65.95;98415.66;5010840;28;20525;-75
2022/07/11 05:15:56;;;;;;;4.13;2.50;;;;;;;17.77;65.92;98411.88;5012741;28;20022;-75
2022/07/11 05:18:21;;;;;;;9.60;2.70;;;;;;;17.74;66.02;98408.94;5012587;28;20042;-75
2022/07/11 05:20:48;;;;;;;3.08;2.30;;;;;;;17.90;65.26;98408.09;5011398;28;20049;-74
2022/07/11 05:23:14;;;;;;;5.43;2.30;;;;;;;17.84;65.87;98417.72;4993610;28;20030;-74
2022/07/11 05:25:39;;;;;;;4.57;2.20;;;;;;;17.93;65.93;98421.25;4977353;28;20029;-73
2022/07/11 05:28:05;;;;;;;3.60;2.65;;;;;;;18.26;64.68;98417.88;4992822;28;20045;-75
2022/07/11 05:30:30;;;;;;;4.22;2.63;;;;;;;18.22;63.41;98414.94;5011336;28;20025;-75
2022/07/11 05:32:55;;;;;;;3.75;2.25;;;;;;;18.22;63.51;98419.66;5011564;28;20037;-75
2022/07/11 05:35:21;;;;;;;5.20;2.40;;;;;;;18.37;62.14;98417.13;5011454;28;20033;-75
2022/07/11 05:37:46;;;;;;;3.85;2.33;;;;;;;18.40;61.58;98424.78;4993750;28;20026;-75
2022/07/11 05:40:12;;;;;;;4.72;2.35;;;;;;;18.20;61.36;98412.50;5011817;28;20434;-75
2022/07/11 05:42:37;;;;;;;4.45;2.50;;;;;;;18.44;61.36;98427.69;5011383;28;20122;-75
2022/07/11 05:45:03;;;;;;;5.63;2.30;;;;;;;18.61;59.62;98428.41;5011392;28;20507;-76
2022/07/11 05:47:28;;;;;;;3.65;2.38;;;;;;;18.58;58.39;98429.09;5011712;28;20069;-75
2022/07/11 05:49:53;;;;;;;4.10;2.60;;;;;;;18.53;58.97;98411.84;5011818;28;20085;-74
2022/07/11 05:52:19;;;;;;;4.13;2.03;;;;;;;18.67;58.87;98426.25;4994342;28;20033;-76
2022/07/11 05:54:44;;;;;;;5.03;2.50;;;;;;;18.13;58.88;98417.78;5012179;28;20025;-74
2022/07/11 05:57:09;;;;;;;3.05;2.20;;;;;;;18.49;57.29;98421.94;5012272;28;20444;-75
2022/07/11 05:59:35;;;;;;;5.45;2.30;;;;;;;18.39;54.54;98406.53;5011833;28;20036;-76
2022/07/11 06:02:04;;;;;;;4.57;2.60;;;;;;;18.61;53.78;98417.34;5011937;28;20034;-75
2022/07/11 06:04:33;;;;;;;3.28;2.00;;;;;;;18.71;53.87;98421.66;4994420;28;20037;-76
2022/07/11 06:06:59;;;;;;;3.20;2.15;;;;;;;18.77;54.36;98417.56;5011820;28;20022;-76
2022/07/11 06:09:25;;;;;;;3.97;2.10;;;;;;;18.98;53.67;98420.34;5011752;28;20040;-77
2022/07/11 06:11:50;;;;;;;4.07;2.22;;;;;;;18.98;52.61;98423.13;5011407;28;20079;-75
2022/07/11 06:14:17;;;;;;;4.72;2.17;;;;;;;18.62;53.00;98399.56;5011612;28;20033;-75
2022/07/11 06:16:42;;;;;;;4.90;2.30;;;;;;;18.74;53.08;98426.53;5011497;28;20057;-74
2022/07/11 06:19:07;;;;;;;2.65;2.00;;;;;;;18.79;54.54;98431.91;5011692;28;20490;-76
2022/07/11 06:21:33;;;;;;;3.08;2.10;;;;;;;19.38;51.75;98429.78;5011451;28;20442;-74
2022/07/11 06:23:59;;;;;;;4.03;2.20;;;;;;;19.89;49.62;98433.97;5011544;28;20026;-73
2022/07/11 06:26:24;;;;;;;3.22;2.25;;;;;;;19.14;52.10;98430.47;5011915;28;20025;-75
2022/07/11 06:28:50;;;;;;;3.47;2.15;;;;;;;19.27;50.82;98431.31;5012053;28;20040;-75
2022/07/11 06:31:16;;;;;;;3.30;2.20;;;;;;;19.12;51.06;98427.22;5013016;28;20032;-75
2022/07/11 06:33:42;;;;;;;2.83;2.00;;;;;;;18.95;51.67;98421.81;5018957;28;20383;-75
2022/07/11 06:36:07;;;;;;;4.88;2.45;;;;;;;18.91;51.30;98420.88;5013711;28;20681;-75
2022/07/11 06:38:33;;;;;;;2.20;1.88;;;;;;;18.99;50.41;98433.84;5010904;28;20029;-74
2022/07/11 06:40:58;;;;;;;6.45;2.30;;;;;;;18.13;52.90;98419.72;5011387;28;20068;-75
2022/07/11 06:43:24;;;;;;;3.38;2.45;;;;;;;18.50;52.93;98431.94;5011331;28;20108;-74
2022/07/11 06:45:50;;;;;;;5.20;2.10;;;;;;;18.67;52.09;98423.50;5011192;28;20474;-75
2022/07/11 06:48:15;;;;;;;5.57;2.22;;;;;;;18.75;52.98;98427.34;5011309;28;20076;-75
2022/07/11 06:50:41;;;;;;;3.95;2.17;;;;;;;18.69;52.03;98397.09;5011120;28;20385;-73
2022/07/11 06:53:06;;;;;;;2.78;2.03;;;;;;;19.04;51.61;98428.13;5010981;28;20026;-74
2022/07/11 06:55:32;;;;;;;3.78;2.33;;;;;;;19.35;50.91;98424.91;5011288;28;20021;-75
2022/07/11 06:57:59;;;;;;;2.97;2.00;;;;;;;19.43;50.91;98420.44;5011324;28;20040;-75
2022/07/11 07:00:24;;;;;;;5.80;2.17;;;;;;;19.52;51.37;98423.94;5011039;28;20034;-76
2022/07/11 07:02:49;;;;;;;2.50;2.20;;;;;;;19.41;51.44;98433.84;4993642;28;20048;-75
2022/07/11 07:05:16;;;;;;;4.50;2.33;;;;;;;19.45;50.97;98423.69;5011008;28;20072;-76
2022/07/11 07:07:41;;;;;;;2.67;2.10;;;;;;;19.54;49.88;98436.34;5011292;28;20056;-76
2022/07/11 07:10:07;;;;;;;3.72;2.00;;;;;;;19.59;49.25;98419.47;5011131;28;20514;-75
2022/07/11 07:12:38;;;;;;;5.30;2.20;;;;;;;19.52;49.51;98421.97;5010887;28;20034;-75
2022/07/11 07:15:04;;;;;;;2.70;2.20;;;;;;;19.49;49.50;98424.63;5010998;28;20113;-73
2022/07/11 07:17:31;;;;;;;3.35;2.75;;;;;;;19.49;49.15;98419.06;5014202;28;20041;-75
2022/07/11 07:19:56;;;;;;;3.25;2.10;;;;;;;19.70;49.92;98436.50;5014978;28;20037;-76
2022/07/11 07:22:22;;;;;;;3.08;2.20;;;;;;;19.70;48.63;98426.19;5015360;28;20018;-76
2022/07/11 07:24:47;;;;;;;3.05;2.00;;;;;;;19.65;48.15;98422.81;5015048;28;20026;-74
2022/07/11 07:27:12;;;;;;;2.53;1.95;;;;;;;19.83;48.38;98418.69;5015969;28;20120;-75
2022/07/11 07:29:38;;;;;;;3.83;2.80;;;;;;;19.92;48.69;98415.84;5014942;28;20089;-75
2022/07/11 07:32:05;;;;;;;5.13;2.28;;;;;;;19.98;48.65;98425.56;5014621;28;20018;-75
2022/07/11 07:34:30;;;;;;;3.38;2.35;;;;;;;20.06;47.72;98421.84;5014429;28;20100;-74
2022/07/11 07:36:55;;;;;;;3.00;2.15;;;;;;;20.11;48.51;98408.53;5014709;28;20033;-75
2022/07/11 07:39:21;;;;;;;6.28;2.20;;;;;;;20.06;47.72;98408.78;4996938;28;20056;-75
2022/07/11 07:41:46;;;;;;;4.75;2.08;;;;;;;20.04;47.75;98404.72;5015401;28;20026;-75
2022/07/11 07:44:11;;;;;;;2.50;2.00;;;;;;;20.08;47.59;98405.66;5015931;28;20053;-77
2022/07/11 07:46:38;;;;;;;3.10;2.00;;;;;;;20.47;47.12;98412.50;5015701;28;20537;-76
2022/07/11 07:49:03;;;;;;;4.05;2.05;;;;;;;20.17;46.58;98403.59;5014760;28;20496;-75
2022/07/11 07:51:29;;;;;;;2.42;2.00;;;;;;;20.18;46.56;98408.78;5014575;28;20022;-76
2022/07/11 07:53:55;;;;;;;2.72;2.10;;;;;;;20.49;46.18;98399.88;5014445;28;20037;-76
2022/07/11 07:56:20;;;;;;;4.00;1.92;;;;;;;20.43;46.06;98409.59;4996896;28;20044;-74
2022/07/11 07:58:46;;;;;;;4.45;2.10;;;;;;;20.41;46.80;98411.94;5013998;28;20060;-78
2022/07/11 08:03:55;;;;;;;3.67;2.40;;;;;;;21.51;45.07;98393.78;5013092;28;20056;-74
2022/07/11 08:06:21;;;;;;;5.97;2.35;;;;;;;21.35;44.24;98401.28;5013121;28;20034;-76
2022/07/11 08:08:46;;;;;;;3.97;2.55;;;;;;;21.82;42.08;98398.59;5003299;28;20076;-76
2022/07/11 08:11:12;;;;;;;3.03;2.10;;;;;;;23.66;39.00;98402.84;5012833;28;20014;-76
2022/07/11 08:13:38;;;;;;;3.05;2.15;;;;;;;24.88;36.81;98403.34;5012569;28;20034;-73
2022/07/11 08:16:06;;;;;;;2.75;2.15;;;;;;;25.30;36.05;98391.09;5012388;28;20081;-75
2022/07/11 08:18:33;;;;;;;2.70;2.00;;;;;;;25.92;34.96;98395.81;5012474;28;20018;-75
2022/07/11 08:20:58;;;;;;;3.33;2.10;;;;;;;26.52;33.79;98401.97;5012709;28;20049;-75
2022/07/11 08:23:24;;;;;;;3.03;2.20;;;;;;;26.23;33.81;98394.50;5012539;28;20014;-75
2022/07/11 08:25:49;;;;;;;2.80;2.10;;;;;;;27.67;31.63;98388.16;5012455;28;20030;-74
2022/07/11 08:28:15;;;;;;;2.70;2.05;;;;;;;25.67;34.24;98380.72;5013437;28;20057;-75
2022/07/11 08:30:40;;;;;;;3.85;2.13;;;;;;;27.34;32.49;98392.03;5013037;28;20025;-78
2022/07/11 08:33:05;;;;;;;2.70;1.90;;;;;;;28.89;30.78;98390.63;5013012;28;20025;-75
2022/07/11 08:35:31;;;;;;;7.63;2.03;;;;;;;27.65;31.34;98396.19;5013383;28;20492;-75
2022/07/11 08:37:56;;;;;;;4.47;2.17;;;;;;;29.58;29.25;98391.59;5017041;28;20545;-78
2022/07/11 08:40:22;;;;;;;2.13;1.88;;;;;;;28.88;29.87;98398.28;5019959;28;20088;-77
2022/07/11 08:42:47;;;;;;;2.72;2.00;;;;;;;29.48;29.21;98388.84;5010666;28;20018;-77
2022/07/11 08:45:16;;;;;;;3.13;2.25;;;;;;;30.53;27.85;98390.19;5013120;28;20033;-75
2022/07/11 08:47:43;;;;;;;2.97;2.03;;;;;;;29.73;27.91;98395.97;5012864;28;20479;-76
2022/07/11 08:50:10;;;;;;;3.65;1.80;;;;;;;29.53;28.03;98380.78;5012691;28;20017;-76
2022/07/11 08:52:37;;;;;;;3.60;2.15;;;;;;;30.31;27.60;98376.63;5012711;28;20156;-74
2022/07/11 08:55:06;;;;;;;2.78;2.17;;;;;;;29.24;28.44;98393.38;5012688;28;20026;-76
2022/07/11 08:57:35;;;;;;;2.83;2.20;;;;;;;26.95;31.58;98383.41;5010854;28;20331;-74
2022/07/11 09:00:03;;;;;;;2.78;2.20;;;;;;;28.62;30.05;98377.00;5010726;28;20057;-76
2022/07/11 09:02:30;;;;;;;4.25;1.98;;;;;;;28.18;30.62;98374.59;4997615;28;20026;-77
2022/07/11 09:04:55;;;;;;;2.67;2.10;;;;;;;29.62;28.45;98377.50;4997471;28;20033;-74
2022/07/11 09:07:20;;;;;;;3.70;2.20;;;;;;;27.40;31.42;98367.16;5008502;28;20400;-76
2022/07/11 09:09:47;;;;;;;3.72;2.40;;;;;;;28.89;29.69;98368.09;5009043;28;20041;-76
2022/07/11 09:12:15;;;;;;;2.55;2.03;;;;;;;28.09;30.09;98371.38;5009711;28;20026;-75
2022/07/11 09:14:46;;;;;;;3.10;2.38;;;;;;;29.58;28.73;98360.59;5010344;28;20034;-75
2022/07/11 09:17:11;;;;;;;4.57;2.28;;;;;;;28.53;29.57;98368.16;5010683;28;20033;-76
2022/07/11 09:19:40;;;;;;;2.83;2.40;;;;;;;29.55;28.12;98367.03;5012108;28;20037;-76
2022/07/11 09:25:30;;;;;;;3.47;2.17;;;;;;;28.17;29.77;98372.16;5016241;28;20430;-78
2022/07/11 09:28:03;;;;;;;3.35;2.05;;;;;;;27.44;31.55;98362.41;5031320;28;20026;-83
2022/07/11 09:30:35;;;;;;;3.13;1.90;;;;;;;26.68;32.26;98364.38;5024410;28;20020;-82
2022/07/11 09:33:09;;;;;;;3.90;2.20;;;;;;;30.00;28.04;98367.22;5021955;28;20135;-80
2022/07/11 09:35:42;;;;;;;5.07;2.10;;;;;;;30.40;27.27;98365.69;5019193;28;20022;-81
2022/07/11 09:38:09;;;;;;;2.80;2.03;;;;;;;27.78;29.79;98371.31;5004817;28;20044;-81
2022/07/11 09:40:36;;;;;;;4.53;2.50;;;;;;;28.34;29.62;98377.00;5017911;28;20052;-82
2022/07/11 09:43:02;;;;;;;3.20;2.00;;;;;;;28.48;29.55;98360.09;5019695;28;20056;-83
2022/07/11 09:45:30;;;;;;;3.88;2.05;;;;;;;29.00;29.74;98358.41;5022921;28;20026;-82
2022/07/11 09:47:57;;;;;;;2.88;2.00;;;;;;;26.78;31.65;98319.53;5013436;28;20113;-83
2022/07/11 09:50:28;;;;;;;2.92;2.22;;;;;;;28.62;29.84;98359.28;5022895;28;20109;-81
2022/07/11 09:53:05;;;;;;;4.07;1.98;;;;;;;29.22;28.77;98367.59;5018145;28;20053;-79
2022/07/11 09:55:32;;;;;;;2.85;2.33;;;;;;;31.13;27.07;98357.69;5019959;28;20026;-82
2022/07/11 09:57:58;;;;;;;3.85;2.00;;;;;;;30.47;27.54;98362.81;5016542;28;20044;-82
2022/07/11 10:00:23;;;;;;;4.88;2.47;;;;;;;30.00;28.83;98344.63;5020687;28;20018;-81
2022/07/11 10:02:51;;;;;;;3.75;2.53;;;;;;;30.65;28.25;98350.13;5019008;28;20471;-81
2022/07/11 10:05:17;;;;;;;4.32;2.45;;;;;;;29.27;28.37;98341.81;5011098;28;20026;-79
2022/07/11 10:07:42;;;;;;;3.20;2.00;;;;;;;31.10;27.42;98345.22;5017529;28;20490;-83
2022/07/11 10:10:10;;;;;;;3.78;2.22;;;;;;;32.30;25.01;98354.81;5014052;28;20013;-79
2022/07/11 10:12:36;;;;;;;4.40;2.20;;;;;;;28.42;29.70;98339.19;5014364;28;20026;-83
2022/07/11 10:15:07;;;;;;;2.95;2.03;;;;;;;28.53;29.93;98328.72;5013970;28;20014;-79
2022/07/11 10:18:00;;;;;;;3.28;2.40;;;;;;;26.99;32.26;98335.69;5015592;28;20025;-82
2022/07/11 10:20:25;;;;;;;3.58;2.40;;;;;;;28.08;31.16;98329.56;5010884;28;20607;-81
2022/07/11 10:23:21;;;;;;;4.73;2.30;;;;;;;27.49;31.23;98317.03;5017364;28;20034;-82
2022/07/11 10:25:53;;;;;;;3.20;2.30;;;;;;;28.32;30.35;98323.09;5017691;28;20064;-82
2022/07/11 10:28:38;;;;;;;4.85;2.58;;;;;;;30.99;27.32;98326.75;5022895;28;20056;-83
2022/07/11 10:31:04;;;;;;;3.85;2.30;;;;;;;31.76;25.88;98317.22;5016378;28;20045;-83
2022/07/11 10:33:30;;;;;;;3.70;2.22;;;;;;;30.12;27.82;98313.06;5013588;28;20052;-79
2022/07/11 10:35:56;;;;;;;3.63;2.05;;;;;;;29.39;28.81;98310.34;5015516;28;20042;-80
2022/07/11 10:38:26;;;;;;;3.00;2.20;;;;;;;28.33;30.77;98312.66;5020513;28;20036;-83
2022/07/11 10:40:57;;;;;;;2.70;1.95;;;;;;;26.97;31.93;98307.97;5018869;28;20030;-80
2022/07/11 10:43:22;;;;;;;4.07;2.70;;;;;;;25.74;34.41;98307.94;5015802;28;20049;-81
2022/07/11 10:46:00;;;;;;;4.78;2.40;;;;;;;25.96;34.08;98289.28;5015951;28;20079;-82
2022/07/11 10:48:28;;;;;;;4.47;2.50;;;;;;;25.36;35.70;98300.72;5021061;28;20065;-81
2022/07/11 10:51:11;;;;;;;3.15;2.50;;;;;;;23.73;38.30;98289.22;5014171;28;20092;-81
2022/07/11 10:53:47;;;;;;;3.47;2.22;;;;;;;23.99;38.08;98283.66;5012851;28;20030;-82
2022/07/11 10:56:57;;;;;;;4.15;2.25;;;;;;;23.87;38.35;98283.09;5014202;28;20446;-83
2022/07/11 10:59:23;;;;;;;4.63;2.03;;;;;;;23.96;38.86;98290.00;4976874;28;20394;-77
2022/07/11 11:02:12;;;;;;;2.80;2.30;;;;;;;23.66;39.20;98285.50;4994171;28;20045;-79
2022/07/11 11:04:57;;;;;;;2.97;2.13;;;;;;;23.60;39.05;98278.63;5001655;28;20046;-79
2022/07/11 11:07:44;;;;;;;4.78;2.22;;;;;;;24.11;38.55;98279.06;5011105;28;20052;-81
2022/07/11 11:10:18;;;;;;;3.15;2.30;;;;;;;23.46;39.42;98265.22;5008481;28;20578;-81
2022/07/11 11:13:06;;;;;;;3.95;2.28;;;;;;;23.77;39.65;98264.97;4989995;28;20120;-80
2022/07/11 11:15:32;;;;;;;2.88;2.10;;;;;;;24.16;39.16;98257.19;5010107;28;20113;-82
2022/07/11 11:17:57;;;;;;;3.00;1.98;;;;;;;23.90;38.76;98254.38;5008630;28;20121;-80
2022/07/11 11:20:33;;;;;;;3.83;2.28;;;;;;;24.33;38.69;98253.84;5014407;28;20053;-81
2022/07/11 11:23:09;;;;;;;2.97;2.13;;;;;;;24.50;37.72;98253.28;5010360;28;20447;-80
2022/07/11 11:25:34;;;;;;;7.20;2.28;;;;;;;24.32;37.97;98249.44;4995416;28;20057;-80
2022/07/11 11:28:03;;;;;;;3.35;2.20;;;;;;;23.74;39.19;98250.94;5011183;28;20064;-81
2022/07/11 11:30:29;;;;;;;4.70;2.60;;;;;;;24.28;38.99;98250.56;4999604;28;20455;-83
2022/07/11 11:32:54;;;;;;;4.35;2.30;;;;;;;24.86;38.17;98245.34;4999895;28;20034;-82
2022/07/11 11:35:19;;;;;;;4.32;2.50;;;;;;;24.34;39.29;98238.66;5012467;28;20088;-79
2022/07/11 11:37:45;;;;;;;6.22;2.47;;;;;;;24.07;38.98;98250.22;5010197;28;20100;-80
2022/07/11 11:40:12;;;;;;;3.17;2.30;;;;;;;24.41;38.66;98235.97;5011643;28;20022;-81